Time;durP1;ratioP1;P1;durP2;ratioP2;P2;SDS_P1;SDS_P2;PMS_P1;PMS_P2;Temp;Humidity;BMP_temperature;BMP_pressure;BME280_temperature;BME280_humidity;BME280_pressure;Samples;Min_cycle;Max_cycle;Signal;HPM_P1;HPM_P2
2021/04/25 00:01:34;;;;;;;6.40;3.58;;;7.70;62.70;;;;;;5072660;28;20435;-74
2021/04/25 00:03:59;;;;;;;6.30;3.38;;;7.70;62.70;;;;;;5076567;28;20032;-73
2021/04/25 00:06:26;;;;;;;7.97;4.45;;;7.70;62.60;;;;;;5076601;28;20450;-73
2021/04/25 00:08:52;;;;;;;7.80;3.75;;;7.70;62.60;;;;;;5076355;28;20400;-74
2021/04/25 00:11:18;;;;;;;7.03;3.63;;;7.70;63.00;;;;;;5075168;28;20020;-74
2021/04/25 00:13:44;;;;;;;6.47;3.78;;;7.70;62.90;;;;;;5076447;28;20028;-74
2021/04/25 00:16:11;;;;;;;10.60;4.15;;;7.70;62.90;;;;;;5076717;28;20070;-74
2021/04/25 00:18:37;;;;;;;6.38;3.70;;;7.80;63.00;;;;;;5074846;28;20024;-74
2021/04/25 00:21:03;;;;;;;6.03;3.58;;;7.80;62.90;;;;;;5076144;28;20024;-74
2021/04/25 00:23:30;;;;;;;5.22;3.47;;;7.80;62.90;;;;;;5074841;28;20052;-73
2021/04/25 00:25:58;;;;;;;6.50;3.45;;;7.80;62.80;;;;;;5076255;28;20028;-74
2021/04/25 00:28:24;;;;;;;7.60;3.92;;;7.90;62.90;;;;;;5076152;28;20028;-73
2021/04/25 00:30:51;;;;;;;7.57;3.65;;;7.90;62.90;;;;;;5074652;28;20184;-73
2021/04/25 00:33:16;;;;;;;5.30;3.03;;;7.90;62.80;;;;;;5075148;28;20039;-74
2021/04/25 00:35:45;;;;;;;5.78;3.28;;;7.90;62.80;;;;;;5076027;28;20028;-73
2021/04/25 00:38:10;;;;;;;6.50;3.40;;;7.90;62.90;;;;;;5076449;28;20340;-73
2021/04/25 00:40:36;;;;;;;5.43;3.40;;;7.90;62.90;;;;;;5074697;28;20036;-73
2021/04/25 00:43:02;;;;;;;8.45;4.20;;;7.80;63.00;;;;;;5074743;28;20025;-73
2021/04/25 00:45:28;;;;;;;7.97;4.10;;;7.80;63.20;;;;;;5076350;28;20032;-74
2021/04/25 00:47:54;;;;;;;7.85;3.40;;;7.80;63.30;;;;;;5074376;28;20119;-73
2021/04/25 00:50:25;;;;;;;9.18;3.85;;;7.70;63.40;;;;;;5075609;28;20127;-74
2021/04/25 00:52:55;;;;;;;7.07;3.58;;;7.60;63.60;;;;;;5075682;28;20032;-74
2021/04/25 00:55:26;;;;;;;8.60;4.00;;;7.60;63.70;;;;;;5075619;28;20103;-74
2021/04/25 00:57:53;;;;;;;5.57;2.97;;;7.50;63.80;;;;;;5073925;28;20044;-73
2021/04/25 01:00:20;;;;;;;5.85;3.63;;;7.50;63.80;;;;;;5074204;28;20517;-73
2021/04/25 01:02:47;;;;;;;6.95;3.50;;;7.40;63.90;;;;;;5075340;28;20028;-73
2021/04/25 01:05:14;;;;;;;4.80;3.10;;;7.30;63.90;;;;;;5074072;28;20480;-73
2021/04/25 01:07:40;;;;;;;7.30;3.75;;;7.30;64.20;;;;;;5075281;28;20033;-73
2021/04/25 01:10:07;;;;;;;7.60;3.40;;;7.20;64.30;;;;;;5075341;28;20032;-73
2021/04/25 01:12:33;;;;;;;4.60;3.17;;;7.10;64.40;;;;;;5075287;28;20045;-73
2021/04/25 01:14:59;;;;;;;6.47;3.20;;;7.10;64.40;;;;;;5073242;28;20115;-73
2021/04/25 01:17:25;;;;;;;5.40;2.80;;;7.00;64.50;;;;;;5073959;28;20111;-73
2021/04/25 01:19:52;;;;;;;5.88;3.10;;;6.90;64.60;;;;;;5075183;28;20116;-73
2021/04/25 01:22:19;;;;;;;4.90;2.97;;;6.80;64.60;;;;;;5073913;28;20021;-73
2021/04/25 01:24:44;;;;;;;5.70;2.90;;;6.80;64.80;;;;;;5073897;28;20369;-73
2021/04/25 01:27:10;;;;;;;6.63;2.95;;;6.80;64.80;;;;;;5073746;28;20150;-74
2021/04/25 01:29:36;;;;;;;5.25;2.75;;;6.70;64.80;;;;;;5075121;28;20419;-74
2021/04/25 01:32:03;;;;;;;6.72;3.05;;;6.70;64.80;;;;;;5074968;28;20051;-73
2021/04/25 01:34:29;;;;;;;5.97;2.97;;;6.60;64.80;;;;;;5073741;28;20487;-73
2021/04/25 01:36:56;;;;;;;6.07;2.92;;;6.60;64.70;;;;;;5074867;28;20032;-73
2021/04/25 01:39:24;;;;;;;5.97;3.10;;;6.60;64.80;;;;;;5073635;28;20032;-73
2021/04/25 01:41:49;;;;;;;5.18;2.80;;;6.60;64.80;;;;;;5075089;28;20036;-73
2021/04/25 01:44:15;;;;;;;5.95;3.03;;;6.50;64.70;;;;;;5074994;28;20363;-73
2021/04/25 01:46:40;;;;;;;7.35;3.10;;;6.50;64.80;;;;;;5074740;28;20028;-74
2021/04/25 01:49:07;;;;;;;6.10;2.25;;;6.50;64.70;;;;;;5073527;28;20028;-73
2021/04/25 01:51:33;;;;;;;5.15;2.50;;;6.40;64.70;;;;;;5074986;28;20119;-74
2021/04/25 01:53:59;;;;;;;4.15;2.70;;;6.40;64.60;;;;;;5073295;28;20044;-73
2021/04/25 01:56:25;;;;;;;7.07;3.03;;;6.40;64.50;;;;;;5074822;28;20530;-73
2021/04/25 01:58:50;;;;;;;6.55;2.90;;;6.40;64.50;;;;;;5073137;28;20392;-73
2021/04/25 02:01:16;;;;;;;4.22;2.50;;;6.30;64.50;;;;;;5074609;28;20032;-73
2021/04/25 02:03:42;;;;;;;5.10;2.55;;;6.30;64.50;;;;;;5073081;28;20032;-73
2021/04/25 02:06:08;;;;;;;5.53;2.60;;;6.30;64.40;;;;;;5074851;28;20476;-73
2021/04/25 02:08:34;;;;;;;6.20;2.50;;;6.30;64.40;;;;;;5072866;28;20132;-73
2021/04/25 02:10:59;;;;;;;8.45;2.47;;;6.30;64.60;;;;;;5073806;28;20078;-73
2021/04/25 02:13:25;;;;;;;8.75;3.25;;;6.30;64.60;;;;;;5074171;28;20090;-73
2021/04/25 02:15:51;;;;;;;5.47;2.80;;;6.20;64.50;;;;;;5072827;28;20025;-73
2021/04/25 02:18:17;;;;;;;5.75;2.70;;;6.20;64.50;;;;;;5073930;28;20066;-73
2021/04/25 02:20:43;;;;;;;5.18;2.55;;;6.20;64.50;;;;;;5072951;28;20365;-73
2021/04/25 02:23:08;;;;;;;8.18;2.88;;;6.20;64.60;;;;;;5073975;28;20055;-73
2021/04/25 02:25:34;;;;;;;5.18;2.40;;;6.20;64.60;;;;;;5072550;28;20016;-73
2021/04/25 02:28:00;;;;;;;6.75;2.47;;;6.10;64.60;;;;;;5074027;28;20054;-73
2021/04/25 02:30:31;;;;;;;3.97;2.42;;;6.10;64.60;;;;;;5073891;28;20058;-74
2021/04/25 02:32:58;;;;;;;6.07;2.28;;;6.10;64.60;;;;;;5073778;28;20119;-73
2021/04/25 02:35:25;;;;;;;7.75;2.50;;;6.10;64.50;;;;;;5072444;28;20029;-73
2021/04/25 02:37:51;;;;;;;8.02;2.47;;;6.10;64.50;;;;;;5072210;28;20654;-73
2021/04/25 02:40:19;;;;;;;4.85;2.20;;;6.10;64.40;;;;;;5072363;28;20032;-73
2021/04/25 02:42:45;;;;;;;4.85;2.25;;;6.10;64.40;;;;;;5072398;28;20025;-73
2021/04/25 02:45:15;;;;;;;4.90;2.30;;;6.10;64.40;;;;;;5072281;28;20111;-73
2021/04/25 02:47:53;;;;;;;5.50;2.47;;;6.10;64.30;;;;;;5073505;28;20395;-74
2021/04/25 02:50:21;;;;;;;5.68;2.72;;;6.10;64.20;;;;;;5072220;28;20029;-73
2021/04/25 02:52:47;;;;;;;5.78;2.20;;;6.10;64.10;;;;;;5072127;28;20037;-73
2021/04/25 02:55:13;;;;;;;3.95;2.20;;;6.10;64.00;;;;;;5073439;28;20032;-73
2021/04/25 02:57:39;;;;;;;4.07;2.33;;;6.10;64.00;;;;;;5071744;28;20041;-73
2021/04/25 03:00:07;;;;;;;3.90;2.20;;;6.10;63.90;;;;;;5073312;28;20025;-73
2021/04/25 03:02:33;;;;;;;5.53;2.25;;;6.10;63.90;;;;;;5073227;28;20099;-73
2021/04/25 03:04:59;;;;;;;3.50;2.05;;;6.20;63.90;;;;;;5071950;28;20052;-73
2021/04/25 03:07:24;;;;;;;4.78;2.30;;;6.20;63.80;;;;;;5073196;28;20472;-73
2021/04/25 03:09:50;;;;;;;6.75;2.33;;;6.20;63.70;;;;;;5071801;28;20058;-73
2021/04/25 03:12:16;;;;;;;3.63;2.08;;;6.20;63.60;;;;;;5073621;28;20555;-73
2021/04/25 03:14:41;;;;;;;5.50;2.30;;;6.30;63.60;;;;;;5073059;28;20069;-73
2021/04/25 03:17:07;;;;;;;4.65;2.15;;;6.30;63.50;;;;;;5071644;28;20032;-73
2021/04/25 03:19:33;;;;;;;3.13;2.00;;;6.30;63.40;;;;;;5071691;28;20048;-74
2021/04/25 03:21:58;;;;;;;5.03;2.38;;;6.40;63.40;;;;;;5071692;28;20032;-73
2021/04/25 03:24:24;;;;;;;4.05;1.88;;;6.40;63.30;;;;;;5073385;28;20054;-73
2021/04/25 03:26:50;;;;;;;4.82;2.40;;;6.50;63.20;;;;;;5073156;28;20025;-73
2021/04/25 03:29:15;;;;;;;5.10;2.13;;;6.50;63.00;;;;;;5071652;28;20023;-73
2021/04/25 03:31:41;;;;;;;2.50;1.73;;;6.50;62.90;;;;;;5073278;28;20024;-73
2021/04/25 03:34:07;;;;;;;4.22;2.40;;;6.50;62.90;;;;;;5071578;28;20029;-74
2021/04/25 03:36:33;;;;;;;3.95;2.10;;;6.60;62.80;;;;;;5072867;28;20032;-73
2021/04/25 03:38:59;;;;;;;4.63;2.10;;;6.60;62.70;;;;;;5072803;28;20426;-73
2021/04/25 03:41:26;;;;;;;3.88;1.95;;;6.60;62.70;;;;;;5071569;28;20020;-74
2021/04/25 03:43:55;;;;;;;4.43;1.90;;;6.60;62.50;;;;;;5071445;28;20048;-73
2021/04/25 03:46:21;;;;;;;4.25;2.50;;;6.60;62.50;;;;;;5071448;28;20021;-74
2021/04/25 03:48:46;;;;;;;4.00;1.98;;;6.70;62.50;;;;;;5073338;28;20043;-74
2021/04/25 03:51:12;;;;;;;5.43;2.10;;;6.70;62.40;;;;;;5073454;28;20052;-74
2021/04/25 03:53:38;;;;;;;3.58;1.95;;;6.70;62.30;;;;;;5071443;28;20024;-74
2021/04/25 03:56:04;;;;;;;4.32;2.28;;;6.80;62.30;;;;;;5071387;28;20391;-74
2021/04/25 03:58:30;;;;;;;3.88;2.13;;;6.80;62.20;;;;;;5072510;28;20489;-74
2021/04/25 04:00:55;;;;;;;3.92;2.13;;;6.80;62.10;;;;;;5073168;28;20147;-74
2021/04/25 04:03:21;;;;;;;3.83;2.00;;;6.80;62.10;;;;;;5071507;28;20063;-74
2021/04/25 04:05:47;;;;;;;4.45;2.15;;;6.80;62.00;;;;;;5072675;28;20028;-74
2021/04/25 04:08:12;;;;;;;4.00;1.70;;;6.80;62.00;;;;;;5072655;28;20031;-74
2021/04/25 04:10:38;;;;;;;4.22;1.67;;;6.80;62.00;;;;;;5071364;28;20427;-74
2021/04/25 04:13:03;;;;;;;3.78;2.00;;;6.80;61.90;;;;;;5071289;28;20051;-74
2021/04/25 04:15:29;;;;;;;3.97;1.58;;;6.80;61.80;;;;;;5072681;28;20029;-73
2021/04/25 04:17:55;;;;;;;3.17;1.73;;;6.90;61.80;;;;;;5072395;28;20058;-73
2021/04/25 04:20:20;;;;;;;5.30;2.03;;;6.90;61.70;;;;;;5072625;28;20055;-74
2021/04/25 04:22:46;;;;;;;4.32;1.92;;;6.90;61.70;;;;;;5072415;28;20028;-74
2021/04/25 04:25:12;;;;;;;5.53;1.63;;;6.90;61.60;;;;;;5072708;28;20021;-74
2021/04/25 04:27:38;;;;;;;3.45;1.83;;;6.90;61.60;;;;;;5070931;28;20469;-73
2021/04/25 04:30:07;;;;;;;4.90;1.85;;;7.00;61.60;;;;;;5072283;28;20025;-74
2021/04/25 04:32:33;;;;;;;4.90;2.17;;;7.00;61.50;;;;;;5070874;28;20031;-74
2021/04/25 04:34:59;;;;;;;5.18;2.08;;;7.00;61.40;;;;;;5072205;28;20399;-73
2021/04/25 04:37:25;;;;;;;5.95;2.05;;;7.00;61.40;;;;;;5072086;28;20031;-73
2021/04/25 04:39:50;;;;;;;3.17;1.50;;;7.00;61.40;;;;;;5070744;28;20025;-73
2021/04/25 04:42:16;;;;;;;3.85;1.80;;;7.00;61.40;;;;;;5070850;28;20025;-74
2021/04/25 04:44:42;;;;;;;4.45;1.80;;;7.00;61.40;;;;;;5072122;28;20392;-74
2021/04/25 04:47:07;;;;;;;4.93;1.73;;;7.00;61.30;;;;;;5072245;28;20036;-74
2021/04/25 04:49:35;;;;;;;5.43;2.03;;;7.00;61.20;;;;;;5073547;28;20518;-74
2021/04/25 04:52:00;;;;;;;3.63;1.60;;;7.00;61.20;;;;;;5075913;28;20500;-74
2021/04/25 04:54:26;;;;;;;5.93;1.50;;;7.00;61.00;;;;;;5076086;28;20039;-74
2021/04/25 04:56:55;;;;;;;4.63;1.38;;;7.00;60.80;;;;;;5075497;28;20063;-74
2021/04/25 04:59:20;;;;;;;3.92;1.30;;;6.90;60.50;;;;;;5074351;28;20067;-73
2021/04/25 05:01:46;;;;;;;3.05;1.05;;;6.90;60.50;;;;;;5075731;28;20032;-73
2021/04/25 05:04:12;;;;;;;3.40;1.23;;;6.80;60.40;;;;;;5075432;28;20028;-73
2021/04/25 05:06:37;;;;;;;4.15;1.77;;;6.80;60.50;;;;;;5074077;28;20032;-74
2021/04/25 05:12:25;;;;;;;2.65;1.52;;;6.80;60.40;;;;;;5075957;28;20032;-73
2021/04/25 05:14:51;;;;;;;4.72;1.60;;;6.80;60.30;;;;;;5075336;28;20352;-73
2021/04/25 05:17:17;;;;;;;5.65;1.30;;;6.80;60.30;;;;;;5075364;28;20314;-73
2021/04/25 05:19:42;;;;;;;3.88;1.98;;;6.90;60.30;;;;;;5073934;28;20021;-73
2021/04/25 05:22:08;;;;;;;3.83;1.55;;;6.90;60.20;;;;;;5073886;28;20487;-73
2021/04/25 05:24:34;;;;;;;7.32;1.73;;;6.90;60.20;;;;;;5073672;28;20354;-75
2021/04/25 05:26:59;;;;;;;4.13;1.85;;;6.90;60.10;;;;;;5074181;28;20440;-73
2021/04/25 05:29:26;;;;;;;4.25;1.58;;;6.90;60.00;;;;;;5075110;28;20392;-73
2021/04/25 05:31:52;;;;;;;6.97;1.90;;;6.90;60.00;;;;;;5075046;28;20032;-74
2021/04/25 05:34:17;;;;;;;4.07;1.50;;;6.90;59.90;;;;;;5073650;28;20027;-73
2021/04/25 05:36:43;;;;;;;5.15;1.52;;;6.90;59.80;;;;;;5073709;28;20024;-74
2021/04/25 05:39:09;;;;;;;4.97;1.73;;;6.90;59.80;;;;;;5073560;28;20024;-73
2021/04/25 05:41:34;;;;;;;3.53;1.60;;;7.00;59.90;;;;;;5073445;28;20032;-74
2021/04/25 05:44:00;;;;;;;4.80;1.55;;;7.00;59.80;;;;;;5073456;28;20480;-73
2021/04/25 05:46:26;;;;;;;6.78;1.80;;;7.10;59.80;;;;;;5074669;28;20141;-73
2021/04/25 05:48:51;;;;;;;5.45;1.70;;;7.00;59.70;;;;;;5074777;28;20024;-73
2021/04/25 05:51:20;;;;;;;5.13;1.90;;;7.00;59.60;;;;;;5074506;28;20058;-74
2021/04/25 05:53:45;;;;;;;3.97;1.50;;;7.00;59.70;;;;;;5074437;28;20028;-73
2021/04/25 05:56:11;;;;;;;7.53;2.20;;;7.00;59.60;;;;;;5073116;28;20124;-73
2021/04/25 05:58:55;;;;;;;6.57;1.58;;;7.10;59.70;;;;;;5074331;28;20108;-73
2021/04/25 06:01:21;;;;;;;2.55;1.27;;;7.20;59.70;;;;;;5072695;28;20032;-73
2021/04/25 06:03:46;;;;;;;6.75;1.67;;;7.20;59.50;;;;;;5074751;28;20024;-73
2021/04/25 06:06:12;;;;;;;5.07;1.63;;;7.20;59.40;;;;;;5074333;28;20391;-74
2021/04/25 06:08:38;;;;;;;5.95;2.15;;;7.20;59.40;;;;;;5074060;28;20043;-73
2021/04/25 06:11:03;;;;;;;7.05;2.72;;;7.30;59.30;;;;;;5074802;28;20052;-72
2021/04/25 06:13:29;;;;;;;4.47;1.98;;;7.30;59.20;;;;;;5073015;28;20032;-73
2021/04/25 06:15:55;;;;;;;7.78;1.70;;;7.30;59.00;;;;;;5074179;28;20119;-73
2021/04/25 06:18:20;;;;;;;3.28;1.70;;;7.30;59.00;;;;;;5072585;28;20025;-73
2021/04/25 06:20:46;;;;;;;4.40;1.60;;;7.30;59.10;;;;;;5072634;28;20024;-73
2021/04/25 06:23:13;;;;;;;4.80;1.60;;;7.30;58.90;;;;;;5072561;28;20024;-73
2021/04/25 06:25:39;;;;;;;4.25;1.60;;;7.40;59.00;;;;;;5072450;28;20021;-73
2021/04/25 06:28:05;;;;;;;3.20;1.10;;;7.40;58.90;;;;;;5073773;28;20137;-73
2021/04/25 06:30:33;;;;;;;3.03;1.27;;;7.50;58.70;;;;;;5072329;28;20025;-73
2021/04/25 06:32:59;;;;;;;4.20;1.40;;;7.50;58.60;;;;;;5072360;28;20028;-74
2021/04/25 06:35:25;;;;;;;5.75;1.40;;;7.50;58.50;;;;;;5073713;28;20029;-74
2021/04/25 06:37:51;;;;;;;3.35;1.35;;;7.50;58.50;;;;;;5072178;28;20025;-74
2021/04/25 06:40:17;;;;;;;2.45;1.20;;;7.50;58.50;;;;;;5073617;28;20078;-74
2021/04/25 06:42:43;;;;;;;4.32;1.23;;;7.50;58.50;;;;;;5072304;28;20017;-74
2021/04/25 06:45:12;;;;;;;3.33;1.27;;;7.50;58.70;;;;;;5072337;28;20046;-74
2021/04/25 06:47:38;;;;;;;3.42;1.30;;;7.50;58.80;;;;;;5073797;28;20028;-74
2021/04/25 06:50:07;;;;;;;4.88;1.48;;;7.50;58.80;;;;;;5073450;28;20408;-74
2021/04/25 06:52:33;;;;;;;4.72;1.13;;;7.60;58.90;;;;;;5073870;28;20017;-74
2021/04/25 06:54:59;;;;;;;6.82;1.08;;;7.50;58.70;;;;;;5073273;28;20538;-74
2021/04/25 06:57:24;;;;;;;2.80;1.10;;;7.60;58.70;;;;;;5073209;28;20460;-74
2021/04/25 06:59:50;;;;;;;2.42;1.00;;;7.60;58.60;;;;;;5073212;28;20123;-74
2021/04/25 07:02:16;;;;;;;12.18;6.00;;;7.80;58.70;;;;;;5071914;28;20100;-74
2021/04/25 07:04:41;;;;;;;6.80;3.17;;;7.80;58.50;;;;;;5073064;28;20371;-74
2021/04/25 07:07:07;;;;;;;7.22;1.67;;;7.80;58.40;;;;;;5071675;28;20020;-74
2021/04/25 07:09:33;;;;;;;5.13;1.80;;;7.80;58.00;;;;;;5071792;28;20056;-74
2021/04/25 07:11:58;;;;;;;4.70;1.23;;;7.90;58.10;;;;;;5071039;28;20044;-74
2021/04/25 07:14:24;;;;;;;3.78;1.38;;;7.90;58.10;;;;;;5073085;28;20038;-71
2021/04/25 07:16:50;;;;;;;5.15;1.10;;;8.00;58.00;;;;;;5072953;28;20032;-73
2021/04/25 07:19:16;;;;;;;3.38;1.20;;;8.00;58.00;;;;;;5071804;28;20020;-72
2021/04/25 07:21:41;;;;;;;6.68;1.13;;;8.00;57.90;;;;;;5072238;28;20012;-74
2021/04/25 07:24:07;;;;;;;5.90;1.30;;;8.10;57.80;;;;;;5073500;28;20372;-74
2021/04/25 07:26:33;;;;;;;3.45;1.00;;;8.20;57.80;;;;;;5071930;28;20341;-74
2021/04/25 07:28:59;;;;;;;4.03;1.20;;;8.30;57.70;;;;;;5071828;28;20073;-74
2021/04/25 07:31:24;;;;;;;5.75;1.48;;;8.30;57.50;;;;;;5073338;28;20024;-74
2021/04/25 07:33:50;;;;;;;3.78;1.02;;;8.30;57.60;;;;;;5071875;28;20031;-74
2021/04/25 07:36:15;;;;;;;3.85;1.20;;;8.20;57.40;;;;;;5071891;28;20120;-74
2021/04/25 07:38:41;;;;;;;5.50;1.20;;;8.30;57.40;;;;;;5071684;28;20017;-74
2021/04/25 07:41:07;;;;;;;4.43;0.95;;;8.20;57.40;;;;;;5071834;28;20047;-74
2021/04/25 07:43:34;;;;;;;4.47;1.17;;;8.30;57.40;;;;;;5071737;28;20017;-74
2021/04/25 07:46:00;;;;;;;5.82;1.00;;;8.40;57.30;;;;;;5073004;28;20461;-74
2021/04/25 07:48:26;;;;;;;7.45;1.52;;;8.50;57.20;;;;;;5071727;28;20016;-74
2021/04/25 07:50:51;;;;;;;5.13;1.30;;;8.50;57.10;;;;;;5071664;28;20387;-74
2021/04/25 07:53:17;;;;;;;6.15;1.40;;;8.60;56.90;;;;;;5071698;28;20054;-74
2021/04/25 07:55:44;;;;;;;5.43;1.05;;;8.60;56.50;;;;;;5071582;28;20025;-74
2021/04/25 07:58:10;;;;;;;1.77;0.80;;;8.50;56.50;;;;;;5071214;28;20060;-74
2021/04/25 08:00:36;;;;;;;5.95;1.02;;;8.60;56.80;;;;;;5072781;28;20039;-74
2021/04/25 08:03:02;;;;;;;4.50;1.65;;;8.60;56.70;;;;;;5071531;28;20079;-74
2021/04/25 08:05:28;;;;;;;5.22;1.20;;;8.70;56.70;;;;;;5072857;28;20379;-74
2021/04/25 08:07:53;;;;;;;5.28;1.55;;;8.70;56.60;;;;;;5072674;28;20036;-74
2021/04/25 08:10:19;;;;;;;5.03;1.35;;;8.70;56.60;;;;;;5072969;28;20029;-74
2021/04/25 08:12:45;;;;;;;5.43;1.40;;;8.70;56.60;;;;;;5072783;28;20025;-74
2021/04/25 08:15:11;;;;;;;4.15;1.38;;;8.70;56.50;;;;;;5072992;28;20032;-74
2021/04/25 08:17:36;;;;;;;3.08;1.05;;;8.70;57.10;;;;;;5071425;28;20125;-74
2021/04/25 08:20:06;;;;;;;4.15;1.20;;;8.70;56.30;;;;;;5071224;28;20016;-74
2021/04/25 08:22:32;;;;;;;2.95;0.90;;;8.70;56.20;;;;;;5071257;28;20029;-74
2021/04/25 08:24:58;;;;;;;5.80;0.90;;;8.80;56.30;;;;;;5075228;28;20161;-75
2021/04/25 08:27:23;;;;;;;5.20;1.73;;;8.90;56.30;;;;;;5075386;28;20029;-74
2021/04/25 08:29:49;;;;;;;6.15;1.20;;;9.00;56.00;;;;;;5075075;28;20060;-74
2021/04/25 08:32:15;;;;;;;4.70;1.10;;;9.00;55.50;;;;;;5076453;28;20082;-74
2021/04/25 08:34:40;;;;;;;5.32;1.38;;;9.00;55.40;;;;;;5076413;28;20455;-73
2021/04/25 08:37:06;;;;;;;5.28;1.75;;;9.10;55.50;;;;;;5074957;28;20037;-74
2021/04/25 08:39:33;;;;;;;4.63;1.13;;;9.10;55.20;;;;;;5074832;28;20063;-74
2021/04/25 08:41:59;;;;;;;7.97;1.30;;;9.10;55.30;;;;;;5074809;28;20107;-74
2021/04/25 08:44:25;;;;;;;4.75;1.63;;;9.20;55.40;;;;;;5074909;28;20120;-74
2021/04/25 08:46:53;;;;;;;3.33;1.10;;;9.20;55.40;;;;;;5076033;28;20021;-74
2021/04/25 08:49:23;;;;;;;5.38;1.23;;;9.30;55.10;;;;;;5075105;28;20044;-75
2021/04/25 08:51:51;;;;;;;3.50;1.08;;;9.40;55.10;;;;;;5074632;28;20026;-74
2021/04/25 08:54:20;;;;;;;6.07;1.35;;;9.40;55.00;;;;;;5074664;28;20064;-74
2021/04/25 08:56:46;;;;;;;5.57;0.95;;;9.40;54.90;;;;;;5075715;28;20127;-74
2021/04/25 08:59:13;;;;;;;3.45;1.10;;;9.50;55.00;;;;;;5076344;28;20107;-74
2021/04/25 09:01:38;;;;;;;4.47;1.10;;;9.60;54.70;;;;;;5075874;28;20077;-74
2021/04/25 09:04:04;;;;;;;2.38;1.02;;;9.60;54.60;;;;;;5074777;28;20127;-74
2021/04/25 09:06:30;;;;;;;4.55;1.20;;;9.70;54.30;;;;;;5075785;28;20415;-74
2021/04/25 09:09:00;;;;;;;4.82;1.23;;;9.80;54.30;;;;;;5074390;28;20392;-74
2021/04/25 09:11:35;;;;;;;4.30;1.33;;;9.80;54.00;;;;;;5074566;28;20060;-74
2021/04/25 09:14:15;;;;;;;6.18;1.20;;;9.80;54.00;;;;;;5075783;28;20039;-75
2021/04/25 09:16:44;;;;;;;8.18;1.40;;;9.90;54.10;;;;;;5075561;28;20029;-73
2021/04/25 09:19:10;;;;;;;4.82;1.10;;;9.90;54.10;;;;;;5073865;28;20121;-74
2021/04/25 09:21:55;;;;;;;5.82;1.23;;;10.00;53.90;;;;;;5075754;28;20052;-73
2021/04/25 09:24:24;;;;;;;5.75;1.70;;;10.00;53.50;;;;;;5075574;28;20025;-73
2021/04/25 09:26:51;;;;;;;3.88;1.40;;;10.00;53.20;;;;;;5073767;28;20044;-73
2021/04/25 09:29:17;;;;;;;5.90;1.48;;;10.10;53.10;;;;;;5075077;28;20021;-74
2021/04/25 09:31:43;;;;;;;7.05;1.30;;;10.10;53.30;;;;;;5073746;28;20055;-74
2021/04/25 09:34:09;;;;;;;4.43;1.13;;;10.20;53.20;;;;;;5073487;28;20052;-73
2021/04/25 09:36:34;;;;;;;5.72;1.15;;;10.30;53.10;;;;;;5074467;28;20491;-75
2021/04/25 09:39:12;;;;;;;7.28;1.45;;;10.40;52.50;;;;;;5073511;28;20036;-74
2021/04/25 09:41:39;;;;;;;5.82;1.55;;;10.40;52.50;;;;;;5074905;28;20113;-74
2021/04/25 09:44:05;;;;;;;8.27;1.55;;;10.30;52.50;;;;;;5075186;28;20020;-74
2021/04/25 09:46:53;;;;;;;5.22;1.30;;;10.30;52.50;;;;;;5074807;28;20040;-75
2021/04/25 09:49:55;;;;;;;5.35;1.10;;;10.30;52.40;;;;;;5073378;28;20028;-75
2021/04/25 09:52:27;;;;;;;4.22;1.33;;;10.40;52.50;;;;;;5055951;28;20028;-74
2021/04/25 09:55:16;;;;;;;7.15;1.77;;;10.60;52.40;;;;;;5069859;28;20033;-75
2021/04/25 09:57:42;;;;;;;9.80;1.15;;;10.70;52.10;;;;;;5072572;28;20083;-74
2021/04/25 10:00:08;;;;;;;7.95;1.80;;;10.80;51.60;;;;;;5073352;28;20036;-74
2021/04/25 10:02:56;;;;;;;7.03;1.60;;;10.90;51.60;;;;;;5074776;28;20073;-75
2021/04/25 10:05:26;;;;;;;4.93;1.33;;;11.00;51.30;;;;;;5074412;28;20020;-75
2021/04/25 10:07:51;;;;;;;5.32;1.40;;;11.00;51.00;;;;;;5074484;28;20024;-74
2021/04/25 10:10:19;;;;;;;4.38;1.10;;;11.00;51.30;;;;;;5074471;28;20179;-74
2021/04/25 10:12:46;;;;;;;4.10;1.40;;;11.00;51.30;;;;;;5074945;28;20089;-74
2021/04/25 10:15:13;;;;;;;3.90;1.10;;;11.10;51.20;;;;;;5073128;28;20042;-74
2021/04/25 10:17:44;;;;;;;3.63;1.30;;;11.10;50.70;;;;;;5073030;28;20438;-74
2021/04/25 10:20:12;;;;;;;5.22;1.30;;;11.10;50.80;;;;;;5074305;28;20147;-74
2021/04/25 10:22:42;;;;;;;4.70;1.20;;;11.10;50.60;;;;;;5070217;28;20080;-74
2021/04/25 10:25:29;;;;;;;6.63;1.50;;;11.00;50.60;;;;;;5072780;28;20028;-74
2021/04/25 10:28:03;;;;;;;3.83;1.20;;;11.00;50.60;;;;;;5073287;28;20056;-74
2021/04/25 10:30:37;;;;;;;5.25;1.25;;;11.00;50.60;;;;;;5074410;28;20035;-74
2021/04/25 10:33:03;;;;;;;5.22;1.13;;;11.10;50.30;;;;;;5074077;28;20123;-74
2021/04/25 10:35:32;;;;;;;3.90;1.15;;;11.10;50.60;;;;;;5074551;28;20020;-74
2021/04/25 10:37:59;;;;;;;3.55;1.05;;;11.30;50.80;;;;;;5073858;28;20028;-74
2021/04/25 10:40:33;;;;;;;4.75;1.33;;;11.50;50.80;;;;;;5072695;28;20051;-74
2021/04/25 10:43:24;;;;;;;4.30;1.25;;;11.50;49.70;;;;;;5072662;28;20029;-74
2021/04/25 10:45:57;;;;;;;3.20;1.13;;;11.50;49.90;;;;;;5072822;28;20048;-75
2021/04/25 10:48:31;;;;;;;3.97;1.17;;;11.60;50.00;;;;;;5073223;28;20067;-73
2021/04/25 10:51:12;;;;;;;1.48;1.00;;;11.70;49.90;;;;;;5072454;28;20024;-74
2021/04/25 10:53:41;;;;;;;3.13;0.90;;;11.80;49.80;;;;;;5073696;28;20447;-74
2021/04/25 10:56:13;;;;;;;3.25;1.10;;;11.90;49.50;;;;;;5073682;28;20135;-74
2021/04/25 10:58:49;;;;;;;3.38;1.05;;;12.00;49.60;;;;;;5072126;28;20137;-74
2021/04/25 11:01:39;;;;;;;4.38;1.10;;;12.10;49.60;;;;;;5073744;28;20013;-74
2021/04/25 11:04:08;;;;;;;5.60;1.02;;;12.20;48.90;;;;;;5074045;28;20090;-74
2021/04/25 11:06:34;;;;;;;4.00;1.20;;;12.20;48.90;;;;;;5071930;28;20362;-74
2021/04/25 11:09:01;;;;;;;6.40;1.77;;;12.30;48.90;;;;;;5073240;28;20021;-74
2021/04/25 11:11:37;;;;;;;3.45;1.30;;;12.30;48.10;;;;;;5073839;28;20028;-74
2021/04/25 11:14:05;;;;;;;5.13;0.98;;;12.20;48.40;;;;;;5072103;28;20047;-74
2021/04/25 11:16:37;;;;;;;2.58;1.10;;;12.30;48.70;;;;;;5072091;28;20090;-75
2021/04/25 11:19:12;;;;;;;5.18;1.20;;;12.40;48.70;;;;;;5073257;28;20025;-75
2021/04/25 11:21:54;;;;;;;2.90;1.20;;;12.50;48.50;;;;;;5073366;28;20017;-74
2021/04/25 11:24:24;;;;;;;6.43;1.45;;;12.50;47.90;;;;;;5073207;28;20482;-74
2021/04/25 11:26:53;;;;;;;5.38;1.30;;;12.30;47.70;;;;;;5073311;28;20480;-75
2021/04/25 11:29:23;;;;;;;5.05;1.25;;;12.20;47.80;;;;;;5073141;28;20095;-74
2021/04/25 11:31:55;;;;;;;3.45;1.20;;;12.10;47.90;;;;;;5073127;28;20448;-75
2021/04/25 11:34:30;;;;;;;2.88;1.10;;;11.90;48.00;;;;;;5071972;28;20063;-74
2021/04/25 11:37:24;;;;;;;4.20;1.35;;;11.90;48.90;;;;;;5073377;28;20066;-74
2021/04/25 11:40:03;;;;;;;4.70;1.30;;;12.00;48.20;;;;;;5071820;28;20367;-74
2021/04/25 11:42:55;;;;;;;4.57;1.30;;;12.00;48.20;;;;;;5071655;28;20020;-75
2021/04/25 11:45:23;;;;;;;3.47;1.38;;;11.90;48.10;;;;;;5072692;28;20086;-74
2021/04/25 11:48:03;;;;;;;4.65;1.17;;;11.80;48.30;;;;;;5072984;28;20059;-74
2021/04/25 11:50:34;;;;;;;4.47;1.20;;;11.80;48.60;;;;;;5071737;28;20488;-74
2021/04/25 11:53:00;;;;;;;4.43;1.10;;;12.00;48.50;;;;;;5071673;28;20020;-74
2021/04/25 11:55:28;;;;;;;5.35;1.00;;;12.10;48.50;;;;;;5072911;28;20098;-74
2021/04/25 11:57:53;;;;;;;6.40;1.33;;;12.30;48.10;;;;;;5073324;28;20045;-73
2021/04/25 12:00:28;;;;;;;2.85;1.10;;;12.40;47.70;;;;;;5075630;28;20066;-72
2021/04/25 12:02:59;;;;;;;2.85;1.15;;;12.50;47.60;;;;;;5076946;28;20050;-74
2021/04/25 12:05:27;;;;;;;4.88;1.20;;;12.60;47.70;;;;;;5077014;28;20387;-74
2021/04/25 12:07:57;;;;;;;2.25;1.00;;;12.80;47.50;;;;;;5075546;28;20020;-74
2021/04/25 12:10:25;;;;;;;5.07;1.20;;;13.00;47.30;;;;;;5075565;28;20078;-75
2021/04/25 12:13:08;;;;;;;3.85;1.10;;;13.20;47.20;;;;;;5076808;28;20033;-74
2021/04/25 12:15:56;;;;;;;3.20;0.93;;;13.30;47.00;;;;;;5076690;28;20020;-74
2021/04/25 12:18:27;;;;;;;5.07;1.20;;;13.40;46.60;;;;;;5075210;28;20029;-74
2021/04/25 12:20:57;;;;;;;2.45;0.95;;;13.40;46.60;;;;;;5075028;28;20029;-74
2021/04/25 12:23:24;;;;;;;3.22;1.23;;;13.40;46.70;;;;;;5076472;28;20021;-74
2021/04/25 12:25:51;;;;;;;3.00;1.25;;;13.50;46.20;;;;;;5076374;28;20052;-74
2021/04/25 12:28:18;;;;;;;3.63;0.98;;;13.50;46.70;;;;;;5075112;28;20422;-74
2021/04/25 12:30:45;;;;;;;3.17;0.95;;;13.50;46.10;;;;;;5074903;28;20027;-74
2021/04/25 12:33:20;;;;;;;4.95;1.00;;;13.40;46.40;;;;;;5076421;28;20082;-75
2021/04/25 12:35:50;;;;;;;3.78;1.50;;;13.40;46.50;;;;;;5075000;28;20077;-74
2021/04/25 12:38:26;;;;;;;4.70;1.45;;;13.40;46.00;;;;;;5074877;28;20119;-76
2021/04/25 12:40:59;;;;;;;3.83;1.50;;;13.30;46.10;;;;;;5075009;28;20021;-77
2021/04/25 12:43:27;;;;;;;3.55;1.10;;;13.20;46.00;;;;;;5074810;28;20111;-78
2021/04/25 12:45:54;;;;;;;5.85;1.20;;;13.10;46.40;;;;;;5074639;28;20039;-77
2021/04/25 12:48:26;;;;;;;3.08;1.05;;;13.10;46.60;;;;;;5074539;28;20388;-74
2021/04/25 12:51:05;;;;;;;4.22;1.05;;;13.20;46.50;;;;;;5075932;28;20025;-74
2021/04/25 12:53:32;;;;;;;4.35;1.40;;;13.40;46.50;;;;;;5074659;28;20107;-74
2021/04/25 12:56:26;;;;;;;6.40;1.40;;;13.50;46.00;;;;;;5074771;28;20027;-75
2021/04/25 12:59:01;;;;;;;3.30;1.40;;;13.50;44.90;;;;;;5074301;28;20048;-74
2021/04/25 13:01:28;;;;;;;3.55;1.17;;;13.40;45.40;;;;;;5076462;28;20434;-75
2021/04/25 13:03:54;;;;;;;3.78;1.10;;;13.40;45.70;;;;;;5075790;28;20415;-74